KCNO/CNO METAR and TAF weather

Enter ICAO airport designator
Station Type Date Time Source
KCNO METAR 2021/05/14 05:53 UTC NOAA

KCNO 140553Z AUTO 27005KT 8SM CLR 15/11 A3001 RMK AO2 SLP159 T01500111 10256 20150 51009


Station Type Date Time Source
KCNO Decoded METAR 2021/05/14 05:53 UTC NOAA

CHINO AIRPORT, CA, United States (KCNO) 33-58N 117-38W 207M
May 14, 2021 - 01:53 AM EDT / 2021.05.14 0553 UTC
Wind: from the W (270 degrees) at 6 MPH (5 KT):0
Visibility: 8 mile(s):0
Sky conditions: clear
Temperature: 59.0 F (15.0 C)
Dew Point: 52.0 F (11.1 C)
Relative Humidity: 77%
Pressure (altimeter): 30.01 in. Hg (1016 hPa)
Pressure tendency: 0.03 inches (0.9 hPa) higher than three hours ago
ob: KCNO 140553Z AUTO 27005KT 8SM CLR 15/11 A3001 RMK AO2 SLP159 T01500111 10256 20150 51009
cycle: 6

Station Type Date Time Source
KCNO TAF UTC NOAA

Error!

Example: see airport list